Wetterstation Valentinhaft
Wetterdaten: aktuell Mittwoch, 28.02.2024 18:00
Datum Zeit Temp. A. Wasser Feuchte A. Luftdruck Regen Wind Richtung Richtung Sonnenschein Solar Taupunkt Windchill Windböen
28.02.2024 18:00 5,8 °C 0,0 °C 29 % 1020,9 hPa 0,0 mm 0,8 km/h NW 319 ° 0 min 0 W/m² -10,8 °C 5,8 °C 6,9 km/h
28.02.2024 17:50 5,9 °C 0,0 °C 32 % 1020,8 hPa 0,0 mm 0,1 km/h NW 306 ° 0 min 0 W/m² -9,5 °C 5,9 °C 2,3 km/h
28.02.2024 17:40 5,9 °C 0,0 °C 40 % 1020,6 hPa 0,0 mm 0,0 km/h W 278 ° 0 min 0 W/m² -6,6 °C 5,9 °C 2,3 km/h
28.02.2024 17:30 5,9 °C 0,0 °C 41 % 1020,7 hPa 0,0 mm 0,0 km/h W 278 ° 0 min 0 W/m² -6,3 °C 5,9 °C 0,0 km/h
28.02.2024 17:20 6,1 °C 0,0 °C 42 % 1020,6 hPa 0,0 mm 0,0 km/h W 278 ° 0 min 6 W/m² -5,8 °C 6,1 °C 2,3 km/h
28.02.2024 17:10 6,1 °C 0,0 °C 42 % 1020,7 hPa 0,0 mm 0,0 km/h W 270 ° 0 min 8 W/m² -5,8 °C 6,1 °C 2,3 km/h
28.02.2024 17:00 6,2 °C 0,0 °C 43 % 1020,6 hPa 0,0 mm 0,3 km/h W 270 ° 0 min 11 W/m² -5,4 °C 6,2 °C 4,6 km/h
28.02.2024 16:50 6,2 °C 0,0 °C 45 % 1020,6 hPa 0,0 mm 1,0 km/h W 266 ° 0 min 14 W/m² -4,8 °C 6,2 °C 6,9 km/h
28.02.2024 16:40 6,2 °C 0,0 °C 44 % 1020,6 hPa 0,0 mm 1,3 km/h W-NW 292 ° 0 min 21 W/m² -5,1 °C 6,2 °C 4,6 km/h
28.02.2024 16:30 6,3 °C 0,0 °C 45 % 1020,5 hPa 0,0 mm 0,8 km/h W-NW 293 ° 0 min 27 W/m² -4,7 °C 6,3 °C 4,6 km/h
28.02.2024 16:20 6,3 °C 0,0 °C 45 % 1020,4 hPa 0,0 mm 3,6 km/h W-NW 292 ° 0 min 30 W/m² -4,7 °C 6,3 °C 9,2 km/h
28.02.2024 16:10 6,4 °C 0,0 °C 46 % 1020,4 hPa 0,0 mm 2,0 km/h W 281 ° 0 min 36 W/m² -4,4 °C 6,4 °C 6,9 km/h
28.02.2024 16:00 6,4 °C 0,0 °C 49 % 1020,4 hPa 0,0 mm 2,1 km/h NW 312 ° 0 min 41 W/m² -3,5 °C 6,4 °C 6,9 km/h
28.02.2024 15:50 6,6 °C 0,0 °C 48 % 1020,3 hPa 0,0 mm 0,7 km/h NW 320 ° 0 min 38 W/m² -3,6 °C 6,6 °C 4,6 km/h
28.02.2024 15:40 6,5 °C 0,0 °C 48 % 1020,2 hPa 0,0 mm 2,0 km/h W-NW 299 ° 0 min 44 W/m² -3,7 °C 6,5 °C 6,9 km/h
28.02.2024 15:30 6,5 °C 0,0 °C 50 % 1020,1 hPa 0,0 mm 4,0 km/h W-NW 290 ° 0 min 52 W/m² -3,2 °C 6,5 °C 9,2 km/h
28.02.2024 15:20 6,6 °C 0,0 °C 50 % 1020,1 hPa 0,0 mm 2,2 km/h W 273 ° 0 min 54 W/m² -3,1 °C 6,6 °C 6,9 km/h
28.02.2024 15:10 6,6 °C 0,0 °C 52 % 1020,1 hPa 0,0 mm 3,3 km/h N-NW 347 ° 0 min 47 W/m² -2,5 °C 6,6 °C 9,2 km/h
28.02.2024 15:00 6,7 °C 0,0 °C 52 % 1020,1 hPa 0,0 mm 1,7 km/h N-NW 338 ° 0 min 56 W/m² -2,4 °C 6,7 °C 6,9 km/h
28.02.2024 14:50 6,6 °C 0,0 °C 52 % 1020,0 hPa 0,0 mm 2,7 km/h N-NW 340 ° 0 min 71 W/m² -2,5 °C 6,6 °C 9,2 km/h
28.02.2024 14:40 6,7 °C 0,0 °C 51 % 1020,1 hPa 0,0 mm 1,0 km/h N 11 ° 0 min 60 W/m² -2,7 °C 6,7 °C 4,6 km/h
28.02.2024 14:30 6,7 °C 0,0 °C 54 % 1019,9 hPa 0,0 mm 4,1 km/h W-NW 282 ° 0 min 67 W/m² -1,9 °C 6,7 °C 11,5 km/h
28.02.2024 14:20 6,7 °C 0,0 °C 54 % 1019,9 hPa 0,0 mm 4,5 km/h N-NW 327 ° 0 min 74 W/m² -1,9 °C 6,7 °C 11,5 km/h
28.02.2024 14:10 6,8 °C 0,0 °C 54 % 1019,8 hPa 0,0 mm 4,3 km/h N-NW 339 ° 0 min 97 W/m² -1,8 °C 6,8 °C 11,5 km/h
28.02.2024 14:00 6,8 °C 0,0 °C 54 % 1019,9 hPa 0,0 mm 2,2 km/h N-NW 348 ° 0 min 117 W/m² -1,8 °C 6,8 °C 9,2 km/h
28.02.2024 13:50 6,8 °C 0,0 °C 53 % 1019,9 hPa 0,0 mm 4,5 km/h N 355 ° 0 min 113 W/m² -2,1 °C 6,8 °C 11,5 km/h
28.02.2024 13:40 6,8 °C 0,0 °C 51 % 1019,9 hPa 0,0 mm 2,4 km/h NO 38 ° 0 min 107 W/m² -2,6 °C 6,8 °C 6,9 km/h
28.02.2024 13:30 6,7 °C 0,0 °C 52 % 1019,9 hPa 0,0 mm 3,4 km/h N-NW 345 ° 0 min 112 W/m² -2,4 °C 6,7 °C 9,2 km/h
28.02.2024 13:20 6,8 °C 0,0 °C 46 % 1019,9 hPa 0,0 mm 3,3 km/h N-NO 31 ° 0 min 125 W/m² -4,0 °C 6,8 °C 9,2 km/h
28.02.2024 13:10 6,7 °C 0,0 °C 42 % 1019,9 hPa 0,0 mm 4,0 km/h N 10 ° 0 min 167 W/m² -5,3 °C 6,7 °C 13,8 km/h
28.02.2024 13:00 6,6 °C 0,0 °C 42 % 1019,8 hPa 0,0 mm 4,0 km/h N-NW 342 ° 0 min 189 W/m² -5,4 °C 6,6 °C 13,8 km/h
28.02.2024 12:50 6,4 °C 0,0 °C 38 % 1019,9 hPa 0,0 mm 5,8 km/h N-NO 33 ° 0 min 210 W/m² -6,9 °C 5,4 °C 18,4 km/h
28.02.2024 12:40 6,3 °C 0,0 °C 29 % 1019,8 hPa 0,0 mm 4,5 km/h N 350 ° 0 min 197 W/m² -10,4 °C 6,3 °C 13,8 km/h
28.02.2024 12:30 6,2 °C 0,0 °C 27 % 1019,9 hPa 0,0 mm 5,5 km/h N-NO 16 ° 0 min 171 W/m² -11,4 °C 5,3 °C 16,1 km/h
28.02.2024 12:20 6,1 °C 0,0 °C 30 % 1020,0 hPa 0,0 mm 4,6 km/h N-NO 19 ° 0 min 96 W/m² -10,1 °C 5,5 °C 13,8 km/h
28.02.2024 12:10 6,1 °C 0,0 °C 29 % 1020,0 hPa 0,0 mm 4,9 km/h W-NW 293 ° 0 min 86 W/m² -10,6 °C 5,4 °C 13,8 km/h
28.02.2024 12:00 6,1 °C 0,0 °C 25 % 1020,1 hPa 0,0 mm 5,9 km/h W 275 ° 0 min 108 W/m² -12,4 °C 5,0 °C 13,8 km/h
28.02.2024 11:50 6,0 °C 0,0 °C 24 % 1020,1 hPa 0,0 mm 4,5 km/h W 272 ° 0 min 111 W/m² -13,0 °C 6,0 °C 9,2 km/h
28.02.2024 11:40 5,9 °C 0,0 °C 24 % 1020,1 hPa 0,0 mm 5,3 km/h W-SW 254 ° 0 min 92 W/m² -13,1 °C 5,0 °C 9,2 km/h
28.02.2024 11:30 5,9 °C 0,0 °C 24 % 1020,1 hPa 0,0 mm 7,7 km/h W 259 ° 0 min 87 W/m² -13,1 °C 4,3 °C 16,1 km/h
28.02.2024 11:20 6,0 °C 0,0 °C 21 % 1020,0 hPa 0,0 mm 8,7 km/h W-SW 242 ° 0 min 96 W/m² -14,6 °C 4,1 °C 16,1 km/h
28.02.2024 11:10 6,0 °C 0,0 °C 21 % 1019,9 hPa 0,0 mm 8,8 km/h W 267 ° 0 min 105 W/m² -14,6 °C 4,1 °C 18,4 km/h
28.02.2024 11:00 6,0 °C 0,0 °C 17 % 1019,7 hPa 0,0 mm 7,2 km/h W-SW 248 ° 0 min 131 W/m² -17,2 °C 4,5 °C 11,5 km/h
28.02.2024 10:50 5,9 °C 0,0 °C 15 % 1019,7 hPa 0,0 mm 6,8 km/h W-SW 239 ° 0 min 145 W/m² -18,7 °C 4,5 °C 13,8 km/h
28.02.2024 10:40 5,8 °C 0,0 °C 12 % 1019,5 hPa 0,0 mm 7,1 km/h SW 215 ° 0 min 128 W/m² -21,3 °C 4,3 °C 13,8 km/h
28.02.2024 10:30 5,7 °C 0,0 °C 9 % 1019,5 hPa 0,0 mm 8,2 km/h W 264 ° 0 min 121 W/m² -24,6 °C 3,9 °C 18,4 km/h
28.02.2024 10:20 5,6 °C 0,0 °C 6 % 1019,5 hPa 0,0 mm 6,5 km/h W-SW 249 ° 0 min 115 W/m² -29,1 °C 4,3 °C 13,8 km/h
28.02.2024 10:10 5,4 °C 0,0 °C 4 % 1019,5 hPa 0,0 mm 6,9 km/h W-SW 240 ° 0 min 101 W/m² -33,4 °C 3,9 °C 11,5 km/h
28.02.2024 10:00 5,3 °C 0,0 °C 4 % 1019,5 hPa 0,0 mm 7,1 km/h W 261 ° 0 min 61 W/m² -33,5 °C 3,7 °C 16,1 km/h
28.02.2024 09:50 5,3 °C 0,0 °C 2 % 1019,4 hPa 0,0 mm 6,2 km/h SW 236 ° 0 min 51 W/m² -40,3 °C 4,0 °C 11,5 km/h
28.02.2024 09:40 5,2 °C 0,0 °C 1 % 1019,3 hPa 0,0 mm 6,6 km/h SW 232 ° 0 min 54 W/m² -46,6 °C 3,8 °C 11,5 km/h
28.02.2024 09:30 5,1 °C 0,0 °C 1 % 1019,0 hPa 0,0 mm 6,0 km/h SW 227 ° 0 min 62 W/m² -46,7 °C 3,8 °C 9,2 km/h
28.02.2024 09:20 4,9 °C 0,0 °C 1 % 1019,1 hPa 0,0 mm 5,9 km/h SW 229 ° 0 min 45 W/m² -46,8 °C 3,6 °C 9,2 km/h
28.02.2024 09:10 4,7 °C 0,0 °C 1 % 1019,1 hPa 0,0 mm 3,4 km/h SW 218 ° 0 min 39 W/m² -47,0 °C 4,7 °C 9,2 km/h
28.02.2024 09:00 4,5 °C 0,0 °C 1 % 1019,0 hPa 0,0 mm 0,0 km/h O 99 ° 0 min 50 W/m² -47,1 °C 4,5 °C 0,0 km/h
28.02.2024 08:50 4,3 °C 0,0 °C 1 % 1018,8 hPa 0,0 mm 0,0 km/h O 98 ° 0 min 48 W/m² -47,2 °C 4,3 °C 0,0 km/h
28.02.2024 08:40 4,2 °C 0,0 °C 1 % 1018,8 hPa 0,0 mm 0,0 km/h O 98 ° 0 min 43 W/m² -47,3 °C 4,2 °C 0,0 km/h
28.02.2024 08:30 3,9 °C 0,0 °C 1 % 1018,6 hPa 0,0 mm 0,0 km/h O 98 ° 0 min 35 W/m² -47,4 °C 3,9 °C 0,0 km/h
28.02.2024 08:20 3,8 °C 0,0 °C 1 % 1018,5 hPa 0,0 mm 0,0 km/h O 98 ° 0 min 27 W/m² -47,5 °C 3,8 °C 0,0 km/h
28.02.2024 08:10 3,6 °C 0,0 °C 1 % 1018,4 hPa 0,0 mm 0,0 km/h O 98 ° 0 min 23 W/m² -47,6 °C 3,6 °C 0,0 km/h
28.02.2024 08:00 3,6 °C 0,0 °C 1 % 1018,3 hPa 0,0 mm 0,0 km/h O 98 ° 0 min 19 W/m² -47,6 °C 3,6 °C 0,0 km/h
28.02.2024 07:50 3,4 °C 0,0 °C 1 % 1018,2 hPa 0,0 mm 0,0 km/h O 98 ° 0 min 15 W/m² -47,8 °C 3,4 °C 0,0 km/h
28.02.2024 07:40 3,4 °C 0,0 °C 2 % 1018,0 hPa 0,0 mm 0,0 km/h O 98 ° 0 min 10 W/m² -41,5 °C 3,4 °C 0,0 km/h
28.02.2024 07:30 3,3 °C 0,0 °C 1 % 1017,9 hPa 0,0 mm 0,2 km/h O 98 ° 0 min 7 W/m² -47,8 °C 3,3 °C 4,6 km/h
28.02.2024 07:20 3,2 °C 0,0 °C 1 % 1017,7 hPa 0,0 mm 0,5 km/h O 98 ° 0 min 5 W/m² -47,9 °C 3,2 °C 4,6 km/h
28.02.2024 07:10 3,1 °C 0,0 °C 2 % 1017,6 hPa 0,0 mm 0,0 km/h O 96 ° 0 min 0 W/m² -41,7 °C 3,1 °C 0,0 km/h
28.02.2024 07:00 3,0 °C 0,0 °C 2 % 1017,5 hPa 0,0 mm 0,0 km/h O 96 ° 0 min 0 W/m² -41,8 °C 3,0 °C 0,0 km/h
28.02.2024 06:50 2,9 °C 0,0 °C 3 % 1017,4 hPa 0,0 mm 0,8 km/h O 96 ° 0 min 0 W/m² -38,0 °C 2,9 °C 6,9 km/h
28.02.2024 06:40 2,8 °C 0,0 °C 4 % 1017,2 hPa 0,0 mm 0,3 km/h O 96 ° 0 min 0 W/m² -35,2 °C 2,8 °C 4,6 km/h
28.02.2024 06:30 2,8 °C 0,0 °C 4 % 1017,0 hPa 0,0 mm 1,9 km/h O 96 ° 0 min 0 W/m² -35,2 °C 2,8 °C 6,9 km/h
28.02.2024 06:20 2,7 °C 0,0 °C 5 % 1016,8 hPa 0,0 mm 0,1 km/h O 96 ° 0 min 0 W/m² -33,1 °C 2,7 °C 4,6 km/h
28.02.2024 06:10 2,8 °C 0,0 °C 6 % 1016,8 hPa 0,0 mm 0,0 km/h O 96 ° 0 min 0 W/m² -31,1 °C 2,8 °C 0,0 km/h
28.02.2024 06:00 2,9 °C 0,0 °C 4 % 1016,6 hPa 0,0 mm 0,1 km/h O 96 ° 0 min 0 W/m² -35,2 °C 2,9 °C 2,3 km/h
28.02.2024 05:50 2,9 °C 0,0 °C 5 % 1016,6 hPa 0,0 mm 3,0 km/h O 96 ° 0 min 0 W/m² -32,9 °C 2,9 °C 6,9 km/h
28.02.2024 05:40 3,1 °C 0,0 °C 3 % 1016,6 hPa 0,0 mm 2,0 km/h O 95 ° 0 min 0 W/m² -37,9 °C 3,1 °C 6,9 km/h
28.02.2024 05:30 3,1 °C 0,0 °C 3 % 1016,5 hPa 0,0 mm 0,3 km/h S-SW 200 ° 0 min 0 W/m² -37,9 °C 3,1 °C 4,6 km/h
28.02.2024 05:20 2,9 °C 0,0 °C 3 % 1016,3 hPa 0,0 mm 2,7 km/h W-NW 287 ° 0 min 0 W/m² -38,0 °C 2,9 °C 9,2 km/h
28.02.2024 05:10 2,9 °C 0,0 °C 3 % 1016,2 hPa 0,0 mm 2,7 km/h O-SO 105 ° 0 min 0 W/m² -38,0 °C 2,9 °C 11,5 km/h
28.02.2024 05:00 2,9 °C 0,0 °C 2 % 1016,2 hPa 0,0 mm 4,2 km/h SO 135 ° 0 min 0 W/m² -41,8 °C 2,9 °C 9,2 km/h
28.02.2024 04:50 2,7 °C 0,0 °C 3 % 1016,0 hPa 0,0 mm 3,1 km/h SO 134 ° 0 min 0 W/m² -38,1 °C 2,7 °C 11,5 km/h
28.02.2024 04:40 2,6 °C 0,0 °C 5 % 1015,9 hPa 0,0 mm 3,6 km/h O 97 ° 0 min 0 W/m² -33,2 °C 2,6 °C 6,9 km/h
28.02.2024 04:30 2,7 °C 0,0 °C 2 % 1015,9 hPa 0,0 mm 2,1 km/h O-SO 121 ° 0 min 0 W/m² -42,0 °C 2,7 °C 9,2 km/h
28.02.2024 04:20 2,6 °C 0,0 °C 3 % 1015,8 hPa 0,0 mm 2,1 km/h SO 127 ° 0 min 0 W/m² -38,2 °C 2,6 °C 6,9 km/h
28.02.2024 04:10 2,5 °C 0,0 °C 4 % 1015,6 hPa 0,0 mm 0,7 km/h SO 126 ° 0 min 0 W/m² -35,5 °C 2,5 °C 4,6 km/h
28.02.2024 04:00 2,5 °C 0,0 °C 3 % 1015,5 hPa 0,0 mm 2,2 km/h SO 126 ° 0 min 0 W/m² -38,3 °C 2,5 °C 4,6 km/h
28.02.2024 03:50 2,4 °C 0,0 °C 2 % 1015,7 hPa 0,0 mm 2,4 km/h SO 130 ° 0 min 0 W/m² -42,2 °C 2,4 °C 6,9 km/h
28.02.2024 03:40 2,2 °C 0,0 °C 4 % 1015,7 hPa 0,0 mm 0,8 km/h SO 136 ° 0 min 0 W/m² -35,7 °C 2,2 °C 9,2 km/h
28.02.2024 03:30 2,1 °C 0,0 °C 4 % 1015,7 hPa 0,0 mm 4,2 km/h SO 126 ° 0 min 0 W/m² -35,7 °C 2,1 °C 9,2 km/h
28.02.2024 03:20 2,1 °C 0,0 °C 6 % 1015,7 hPa 0,0 mm 2,3 km/h O-SO 122 ° 0 min 0 W/m² -31,7 °C 2,1 °C 6,9 km/h
28.02.2024 03:10 2,4 °C 0,0 °C 4 % 1015,5 hPa 0,0 mm 0,0 km/h S 174 ° 0 min 0 W/m² -35,5 °C 2,4 °C 0,0 km/h
28.02.2024 03:00 2,6 °C 0,0 °C 2 % 1015,4 hPa 0,0 mm 2,2 km/h S 186 ° 0 min 0 W/m² -42,0 °C 2,6 °C 9,2 km/h
28.02.2024 02:50 2,5 °C 0,0 °C 2 % 1015,5 hPa 0,0 mm 5,9 km/h S-SO 148 ° 0 min 0 W/m² -42,1 °C 0,9 °C 13,8 km/h
28.02.2024 02:40 2,3 °C 0,0 °C 2 % 1015,5 hPa 0,0 mm 1,9 km/h SO 130 ° 0 min 0 W/m² -42,2 °C 2,3 °C 9,2 km/h
28.02.2024 02:30 2,1 °C 0,0 °C 3 % 1015,3 hPa 0,0 mm 5,6 km/h SO 124 ° 0 min 0 W/m² -38,5 °C 0,5 °C 13,8 km/h
28.02.2024 02:20 1,8 °C 0,0 °C 4 % 1015,2 hPa 0,0 mm 1,2 km/h O-SO 114 ° 0 min 0 W/m² -36,0 °C 1,8 °C 6,9 km/h
28.02.2024 02:10 2,1 °C 0,0 °C 3 % 1015,2 hPa 0,0 mm 3,2 km/h SO 132 ° 0 min 0 W/m² -38,5 °C 2,1 °C 13,8 km/h
28.02.2024 02:00 1,8 °C 0,0 °C 4 % 1015,0 hPa 0,0 mm 5,9 km/h SO 134 ° 0 min 0 W/m² -36,0 °C 0,1 °C 16,1 km/h
28.02.2024 01:50 1,7 °C 0,0 °C 4 % 1014,8 hPa 0,0 mm 5,6 km/h SO 140 ° 0 min 0 W/m² -36,0 °C 0,1 °C 11,5 km/h
28.02.2024 01:40 1,4 °C 0,0 °C 6 % 1014,7 hPa 0,0 mm 2,6 km/h SO 130 ° 0 min 0 W/m² -32,2 °C 1,4 °C 11,5 km/h
28.02.2024 01:30 1,7 °C 0,0 °C 6 % 1014,6 hPa 0,0 mm 1,3 km/h SO 143 ° 0 min 0 W/m² -31,9 °C 1,7 °C 6,9 km/h
28.02.2024 01:20 1,7 °C 0,0 °C 6 % 1014,5 hPa 0,0 mm 1,1 km/h SO 127 ° 0 min 0 W/m² -31,9 °C 1,7 °C 9,2 km/h
28.02.2024 01:10 1,8 °C 0,0 °C 6 % 1014,5 hPa 0,0 mm 0,6 km/h SO 126 ° 0 min 0 W/m² -31,9 °C 1,8 °C 4,6 km/h
28.02.2024 01:00 1,7 °C 0,0 °C 7 % 1014,5 hPa 0,0 mm 2,7 km/h O-SO 123 ° 0 min 0 W/m² -30,4 °C 1,7 °C 9,2 km/h
28.02.2024 00:50 1,6 °C 0,0 °C 7 % 1014,6 hPa 0,0 mm 2,0 km/h SO 134 ° 0 min 0 W/m² -30,4 °C 1,6 °C 6,9 km/h
28.02.2024 00:40 1,4 °C 0,0 °C 13 % 1014,5 hPa 0,0 mm 0,3 km/h SO 146 ° 0 min 0 W/m² -23,9 °C 1,4 °C 4,6 km/h
28.02.2024 00:30 1,7 °C 0,0 °C 15 % 1014,3 hPa 0,0 mm 0,0 km/h S 175 ° 0 min 0 W/m² -22,1 °C 1,7 °C 0,0 km/h
28.02.2024 00:20 2,4 °C 0,0 °C 11 % 1014,2 hPa 0,0 mm 0,1 km/h SO 138 ° 0 min 0 W/m² -25,0 °C 2,4 °C 2,3 km/h
28.02.2024 00:10 2,7 °C 0,0 °C 6 % 1014,2 hPa 0,0 mm 2,1 km/h SO 137 ° 0 min 0 W/m² -31,2 °C 2,7 °C 6,9 km/h
28.02.2024 00:00 2,8 °C 0,0 °C 6 % 1014,0 hPa 0,0 mm 0,8 km/h SO 139 ° 0 min 0 W/m² -31,1 °C 2,8 °C 6,9 km/h
27.02.2024 23:50 2,9 °C 0,0 °C 6 % 1014,0 hPa 0,0 mm 0,1 km/h SO 130 ° 0 min 0 W/m² -31,1 °C 2,9 °C 4,6 km/h
27.02.2024 23:40 3,1 °C 0,0 °C 6 % 1013,9 hPa 0,0 mm 0,0 km/h SO 130 ° 0 min 0 W/m² -30,9 °C 3,1 °C 0,0 km/h
27.02.2024 23:30 3,2 °C 0,0 °C 5 % 1013,8 hPa 0,0 mm 0,5 km/h S-SO 155 ° 0 min 0 W/m² -32,7 °C 3,2 °C 9,2 km/h
27.02.2024 23:20 3,1 °C 0,0 °C 5 % 1013,8 hPa 0,0 mm 0,1 km/h S-SO 165 ° 0 min 0 W/m² -32,8 °C 3,1 °C 2,3 km/h
27.02.2024 23:10 3,1 °C 0,0 °C 6 % 1013,7 hPa 0,0 mm 0,0 km/h S 190 ° 0 min 0 W/m² -30,9 °C 3,1 °C 0,0 km/h
27.02.2024 23:00 3,2 °C 0,0 °C 6 % 1013,7 hPa 0,0 mm 0,0 km/h S 191 ° 0 min 0 W/m² -30,8 °C 3,2 °C 0,0 km/h
27.02.2024 22:50 3,3 °C 0,0 °C 6 % 1013,7 hPa 0,0 mm 0,0 km/h S 191 ° 0 min 0 W/m² -30,8 °C 3,3 °C 0,0 km/h
27.02.2024 22:40 3,4 °C 0,0 °C 7 % 1013,6 hPa 0,0 mm 0,0 km/h S-SW 196 ° 0 min 0 W/m² -29,1 °C 3,4 °C 0,0 km/h
27.02.2024 22:30 3,5 °C 0,0 °C 8 % 1013,5 hPa 0,0 mm 0,0 km/h S-SW 205 ° 0 min 0 W/m² -27,6 °C 3,5 °C 0,0 km/h
27.02.2024 22:20 3,6 °C 0,0 °C 8 % 1013,5 hPa 0,0 mm 0,0 km/h S-SW 201 ° 0 min 0 W/m² -27,5 °C 3,6 °C 0,0 km/h
27.02.2024 22:10 3,8 °C 0,0 °C 7 % 1013,4 hPa 0,0 mm 0,0 km/h S-SW 198 ° 0 min 0 W/m² -28,8 °C 3,8 °C 0,0 km/h
27.02.2024 22:00 3,9 °C 0,0 °C 7 % 1013,3 hPa 0,0 mm 0,0 km/h S-SW 194 ° 0 min 0 W/m² -28,7 °C 3,9 °C 0,0 km/h
27.02.2024 21:50 3,9 °C 0,0 °C 7 % 1013,2 hPa 0,0 mm 0,0 km/h S-SW 192 ° 0 min 0 W/m² -28,7 °C 3,9 °C 0,0 km/h
27.02.2024 21:40 4,1 °C 0,0 °C 7 % 1013,0 hPa 0,0 mm 0,0 km/h S 185 ° 0 min 0 W/m² -28,6 °C 4,1 °C 0,0 km/h
27.02.2024 21:30 4,1 °C 0,0 °C 7 % 1013,0 hPa 0,0 mm 0,0 km/h S 185 ° 0 min 0 W/m² -28,6 °C 4,1 °C 0,0 km/h
27.02.2024 21:20 4,1 °C 0,0 °C 7 % 1012,9 hPa 0,0 mm 0,0 km/h S 185 ° 0 min 0 W/m² -28,6 °C 4,1 °C 0,0 km/h
27.02.2024 21:10 4,2 °C 0,0 °C 8 % 1012,7 hPa 0,0 mm 0,0 km/h S 185 ° 0 min 0 W/m² -27,1 °C 4,2 °C 0,0 km/h
27.02.2024 21:00 4,2 °C 0,0 °C 8 % 1012,7 hPa 0,0 mm 0,0 km/h S 185 ° 0 min 0 W/m² -27,1 °C 4,2 °C 0,0 km/h
27.02.2024 20:50 4,1 °C 0,0 °C 9 % 1012,6 hPa 0,0 mm 0,0 km/h S 189 ° 0 min 0 W/m² -25,9 °C 4,1 °C 2,3 km/h
27.02.2024 20:40 4,2 °C 0,0 °C 9 % 1012,3 hPa 0,0 mm 0,1 km/h S-SW 203 ° 0 min 0 W/m² -25,8 °C 4,2 °C 2,3 km/h
27.02.2024 20:30 4,2 °C 0,0 °C 8 % 1012,3 hPa 0,0 mm 0,0 km/h W 277 ° 0 min 0 W/m² -27,1 °C 4,2 °C 0,0 km/h
27.02.2024 20:20 4,3 °C 0,0 °C 8 % 1012,1 hPa 0,0 mm 0,0 km/h W 277 ° 0 min 0 W/m² -27,0 °C 4,3 °C 0,0 km/h
27.02.2024 20:10 4,3 °C 0,0 °C 8 % 1012,1 hPa 0,0 mm 0,0 km/h W 277 ° 0 min 0 W/m² -27,0 °C 4,3 °C 0,0 km/h
27.02.2024 20:00 4,2 °C 0,0 °C 8 % 1012,1 hPa 0,0 mm 0,0 km/h W 277 ° 0 min 0 W/m² -27,1 °C 4,2 °C 0,0 km/h
27.02.2024 19:50 4,1 °C 0,0 °C 10 % 1012,0 hPa 0,0 mm 0,0 km/h W 277 ° 0 min 0 W/m² -24,7 °C 4,1 °C 0,0 km/h
27.02.2024 19:40 4,1 °C 0,0 °C 11 % 1011,9 hPa 0,0 mm 0,0 km/h W 277 ° 0 min 0 W/m² -23,7 °C 4,1 °C 0,0 km/h
27.02.2024 19:30 4,1 °C 0,0 °C 11 % 1011,8 hPa 0,0 mm 0,0 km/h W 277 ° 0 min 0 W/m² -23,7 °C 4,1 °C 0,0 km/h
27.02.2024 19:20 4,2 °C 0,0 °C 12 % 1011,6 hPa 0,0 mm 0,0 km/h W 277 ° 0 min 0 W/m² -22,6 °C 4,2 °C 0,0 km/h
27.02.2024 19:10 4,2 °C 0,0 °C 14 % 1011,5 hPa 0,0 mm 0,0 km/h W 277 ° 0 min 0 W/m² -20,9 °C 4,2 °C 0,0 km/h
27.02.2024 19:00 4,2 °C 0,0 °C 15 % 1011,5 hPa 0,0 mm 0,0 km/h W 277 ° 0 min 0 W/m² -20,1 °C 4,2 °C 0,0 km/h
_ Min-Zeit 01:40 18:00 09:40 19:10 - 17:40 - - - - 07:20 02:00 17:30
Minimum _ 1,4 °C 0,0 °C 1 % 1011,5 hPa - 0,0 km/h - - - - -47,9 °C 0,1 °C 0,0 km/h
_ Max-Zeit 14:10 18:00 14:30 18:00 18:00 11:10 - - 18:00 12:50 14:10 14:10 12:50
Maximum _ 6,8 °C 0,0 °C 54 % 1020,9 hPa 0,0 mm 8,8 km/h
W
- - 0 min 210 W/m² -1,8 °C 6,8 °C 18,4 km/h
N-NO
Durchschnitt _ 4,3 °C 0,0 °C 16 % 1016,6 hPa #0,0 mm 2,0 km/h SO - #0 min. 41 W/m² -25,2 °C 4,0 °C 5,8 km/h